Terminal Aerodrome Forecast
Issued by NWS Twin Cities, MN

Home | Current Version | Previous Version | Graphics & Text | Print | Product List | Glossary On
Versions: 1 2 3 4 5 6 7 8 9 10 11 12 13 14 15 16 17 18 19
000
FTUS43 KMPX 280834 AAA
TAFEAU
TAF AMD
KEAU 280834Z 2809/2906 VRB03KT 1/2SM FG OVC003
     FM281400 15004KT 6SM -SHRA BR OVC015
     FM281800 19009KT P6SM SCT020 BKN060 PROB30 2823/2903 5SM -SHRA
      OVC050=

USA.gov is the U.S. government's official web portal to all federal, state and local government web resources and services.